createdAt,value
2022-11-29T00:16:30.475Z,100508.83
2022-11-29T00:38:16.393Z,100509.94
2022-11-29T01:00:02.165Z,100508.70
2022-11-29T01:21:47.878Z,100496.20
2022-11-29T01:43:34.429Z,100503.45
2022-11-29T02:05:22.502Z,100501.60
2022-11-29T02:27:40.981Z,100493.79
2022-11-29T02:49:42.930Z,100504.49
2022-11-29T03:11:39.485Z,100518.15
2022-11-29T03:33:31.189Z,100532.78
2022-11-29T03:55:32.438Z,100538.00
2022-11-29T04:40:25.287Z,100551.07
2022-11-29T05:02:21.166Z,100568.17
2022-11-29T05:24:18.664Z,100583.81
2022-11-29T05:46:12.902Z,100587.97
2022-11-29T06:08:07.191Z,100609.16
2022-11-29T06:30:03.178Z,100633.23
2022-11-29T06:52:02.976Z,100656.58
2022-11-29T07:13:49.876Z,100657.46
2022-11-29T07:35:44.662Z,100665.67
2022-11-29T07:57:30.326Z,100671.77
2022-11-29T08:28:02.857Z,100687.81
2022-11-29T08:50:04.200Z,100699.09
2022-11-29T09:11:50.231Z,100703.77
2022-11-29T09:33:36.193Z,100715.72
2022-11-29T09:55:47.204Z,100719.96
2022-11-29T10:17:38.213Z,100714.54
2022-11-29T10:39:29.994Z,100722.43
2022-11-29T11:01:17.814Z,100715.66
2022-11-29T11:23:06.043Z,100706.43
2022-11-29T11:44:53.681Z,100706.11
2022-11-29T12:06:44.849Z,100711.46
2022-11-29T12:28:33.540Z,100724.42
2022-11-29T12:50:32.653Z,100720.78
2022-11-29T13:12:25.642Z,100732.63
2022-11-29T13:34:15.928Z,100746.02
2022-11-29T13:56:02.532Z,100761.90
2022-11-29T14:17:54.340Z,100782.55
2022-11-29T14:39:47.848Z,100794.90
2022-11-29T15:01:35.214Z,100810.16
2022-11-29T15:23:21.754Z,100822.26
2022-11-29T15:45:40.520Z,100835.71
2022-11-29T16:07:29.182Z,100846.09
2022-11-29T16:29:28.319Z,100859.66
2022-11-29T16:51:26.476Z,100862.86
2022-11-29T17:13:13.467Z,100883.98
2022-11-29T17:34:59.171Z,100899.34
2022-11-29T17:56:44.914Z,100914.58
2022-11-29T18:34:31.577Z,100941.90
2022-11-29T18:56:19.403Z,100949.89
2022-11-29T19:18:05.351Z,100963.05
2022-11-29T19:39:51.955Z,100980.38
2022-11-29T20:01:41.355Z,100995.09
2022-11-29T20:23:27.923Z,101003.39
2022-11-29T20:45:17.205Z,101011.42
2022-11-29T21:07:03.843Z,101026.92
2022-11-29T21:28:58.707Z,101036.64
2022-11-29T21:50:44.471Z,101049.39
2022-11-29T22:12:34.353Z,101058.71
2022-11-29T22:34:20.894Z,101063.23
2022-11-29T22:56:09.305Z,101064.31
2022-11-29T23:17:55.094Z,101067.70
2022-11-29T23:39:40.829Z,101065.17
